createdAt,value
2023-05-21T00:00:07.699Z,15.89
2023-05-21T00:15:56.440Z,15.92
2023-05-21T00:31:51.579Z,15.89
2023-05-21T00:46:54.099Z,15.82
2023-05-21T01:02:13.741Z,15.74
2023-05-21T01:17:17.006Z,15.73
2023-05-21T01:32:27.339Z,15.64
2023-05-21T01:47:32.544Z,15.52
2023-05-21T02:02:35.396Z,15.31
2023-05-21T02:17:53.185Z,14.95
2023-05-21T02:32:58.149Z,14.78
2023-05-21T02:48:15.552Z,14.68
2023-05-21T03:03:32.868Z,14.61
2023-05-21T03:20:08.324Z,14.58
2023-05-21T03:35:11.091Z,14.67
2023-05-21T04:25:02.361Z,15.83
2023-05-21T05:15:44.594Z,16.74
2023-05-21T05:31:01.962Z,17.07
2023-05-21T05:47:21.835Z,17.37
2023-05-21T06:20:17.862Z,18.19
2023-05-21T06:35:21.647Z,18.81
2023-05-21T07:07:52.173Z,20.53
2023-05-21T07:23:45.765Z,21.35
2023-05-21T07:38:48.620Z,22.13
2023-05-21T07:53:52.787Z,22.74
2023-05-21T08:09:11.972Z,23.46
2023-05-21T08:24:15.236Z,23.87
2023-05-21T08:39:18.066Z,24.15
2023-05-21T08:54:22.165Z,24.38
2023-05-21T09:09:34.069Z,24.55
2023-05-21T09:24:43.698Z,24.75
2023-05-21T09:57:04.547Z,24.81
2023-05-21T10:12:35.017Z,24.94
2023-05-21T10:27:38.484Z,25.14
2023-05-21T10:44:00.073Z,25.25
2023-05-21T10:59:34.125Z,25.44
2023-05-21T11:15:56.155Z,25.63
2023-05-21T11:49:09.279Z,25.78
2023-05-21T12:04:37.440Z,25.80
2023-05-21T12:20:58.169Z,26.18
2023-05-21T12:36:03.668Z,26.33
2023-05-21T12:51:57.335Z,26.25
2023-05-21T13:41:37.441Z,26.33
2023-05-21T13:56:41.015Z,26.14
2023-05-21T14:13:11.337Z,26.04
2023-05-21T14:28:47.357Z,25.58
2023-05-21T14:44:48.142Z,25.62
2023-05-21T15:00:16.573Z,26.10
2023-05-21T15:15:22.723Z,26.26
2023-05-21T15:30:40.362Z,26.28
2023-05-21T15:45:43.021Z,25.98
2023-05-21T16:01:00.365Z,25.57
2023-05-21T16:16:03.520Z,25.19
2023-05-21T16:31:57.736Z,24.71
2023-05-21T16:47:50.890Z,24.15
2023-05-21T17:02:54.330Z,23.28
2023-05-21T17:19:14.352Z,22.69
2023-05-21T17:34:18.285Z,22.21
2023-05-21T17:49:20.775Z,21.79
2023-05-21T18:04:23.418Z,21.38
2023-05-21T18:19:26.226Z,20.98
2023-05-21T18:34:29.202Z,20.49
2023-05-21T18:49:56.924Z,19.84
2023-05-21T19:05:51.211Z,19.39
2023-05-21T19:38:21.695Z,18.47
2023-05-21T19:54:39.606Z,18.25
2023-05-21T20:10:00.558Z,18.07
2023-05-21T20:25:54.362Z,17.91
2023-05-21T20:41:24.701Z,17.57
2023-05-21T20:57:38.157Z,17.31
2023-05-21T21:12:44.444Z,17.04
2023-05-21T21:45:24.392Z,16.53
2023-05-21T22:18:01.742Z,15.96
2023-05-21T22:52:04.581Z,15.58
2023-05-21T23:07:21.635Z,15.35
2023-05-21T23:32:57.152Z,15.00
2023-05-21T23:49:17.057Z,14.77
